createdAt,value
2023-01-30T00:01:39.200Z,30.83
2023-01-30T00:04:45.226Z,30.54
2023-01-30T00:07:52.077Z,31.48
2023-01-30T00:11:00.814Z,30.84
2023-01-30T00:14:07.472Z,30.24
2023-01-30T00:17:13.439Z,29.40
2023-01-30T00:20:20.884Z,28.58
2023-01-30T00:23:29.193Z,26.73
2023-01-30T00:26:38.784Z,26.81
2023-01-30T00:29:57.598Z,26.65
2023-01-30T00:33:04.615Z,25.67
2023-01-30T00:36:13.025Z,24.58
2023-01-30T00:39:20.112Z,23.98
2023-01-30T00:42:40.845Z,23.85
2023-01-30T00:46:02.608Z,23.63
2023-01-30T00:49:08.500Z,24.00
2023-01-30T00:52:15.294Z,23.73
2023-01-30T00:55:21.148Z,23.69
2023-01-30T00:58:30.504Z,24.52
2023-01-30T01:01:38.013Z,24.45
2023-01-30T01:04:46.050Z,24.95
2023-01-30T01:07:51.959Z,25.10
2023-01-30T01:10:58.587Z,24.27
2023-01-30T01:14:09.520Z,25.44
2023-01-30T01:17:16.209Z,23.72
2023-01-30T01:20:24.314Z,23.47
2023-01-30T01:23:31.043Z,23.30
2023-01-30T01:26:37.113Z,23.09
2023-01-30T01:29:49.124Z,23.39
2023-01-30T01:32:54.985Z,22.76
2023-01-30T01:36:03.783Z,21.43
2023-01-30T01:39:10.447Z,22.04
2023-01-30T01:42:14.428Z,21.53
2023-01-30T01:45:27.658Z,22.33
2023-01-30T01:48:41.344Z,22.08
2023-01-30T01:51:58.106Z,22.18
2023-01-30T01:55:09.942Z,22.44
2023-01-30T01:58:27.861Z,21.61
2023-01-30T02:01:38.042Z,21.50
2023-01-30T02:05:05.364Z,21.31
2023-01-30T02:08:18.726Z,21.21
2023-01-30T02:11:34.507Z,20.99
2023-01-30T02:14:45.920Z,21.37
2023-01-30T02:17:55.184Z,21.62
2023-01-30T02:21:50.575Z,21.51
2023-01-30T02:25:42.658Z,21.27
2023-01-30T02:29:26.956Z,21.53
2023-01-30T02:32:46.744Z,20.99
2023-01-30T02:36:13.076Z,21.10
2023-01-30T02:39:40.872Z,22.03
2023-01-30T02:43:30.896Z,21.57
2023-01-30T02:46:54.257Z,21.19
2023-01-30T02:50:13.827Z,21.71
2023-01-30T02:53:20.602Z,21.91
2023-01-30T02:56:26.731Z,21.90
2023-01-30T02:59:44.764Z,22.11
2023-01-30T03:03:30.069Z,22.21
2023-01-30T03:07:14.289Z,21.25
2023-01-30T03:10:35.550Z,21.32
2023-01-30T03:13:58.161Z,20.83
2023-01-30T03:17:09.507Z,19.71
2023-01-30T03:20:19.535Z,19.98
2023-01-30T03:23:28.611Z,19.86
2023-01-30T03:26:44.704Z,19.91
2023-01-30T03:29:50.592Z,19.74
2023-01-30T03:32:57.225Z,19.86
2023-01-30T03:36:03.719Z,19.52
2023-01-30T03:39:13.412Z,19.68
2023-01-30T03:42:19.770Z,19.98
2023-01-30T03:45:27.206Z,19.66
2023-01-30T03:48:33.086Z,20.44
2023-01-30T03:51:40.114Z,19.29
2023-01-30T03:54:48.441Z,20.04
2023-01-30T03:57:59.752Z,19.89
2023-01-30T04:01:09.227Z,19.73
2023-01-30T04:04:16.104Z,19.47
2023-01-30T04:07:22.616Z,19.04
2023-01-30T04:10:33.744Z,19.08
2023-01-30T04:13:40.093Z,19.25
2023-01-30T04:16:48.388Z,19.74
2023-01-30T04:20:20.952Z,20.73
2023-01-30T04:23:32.100Z,19.82
2023-01-30T04:26:40.883Z,19.90
2023-01-30T04:29:47.988Z,19.99
2023-01-30T04:32:54.095Z,19.90
2023-01-30T04:36:03.340Z,20.26
2023-01-30T04:39:09.358Z,20.68
2023-01-30T04:42:18.607Z,20.22
2023-01-30T04:45:45.347Z,20.94
2023-01-30T04:48:52.025Z,20.36
2023-01-30T04:52:00.299Z,20.86
2023-01-30T04:55:07.837Z,21.49
2023-01-30T04:58:16.908Z,21.33
2023-01-30T05:01:34.825Z,21.71
2023-01-30T05:04:41.208Z,22.52
2023-01-30T05:07:47.958Z,22.22
2023-01-30T05:10:54.183Z,22.39
2023-01-30T05:14:04.835Z,22.96
2023-01-30T05:17:11.239Z,21.68
2023-01-30T05:20:18.413Z,22.90
2023-01-30T05:23:24.367Z,23.93
2023-01-30T05:26:31.020Z,22.83
2023-01-30T05:29:39.657Z,22.94
2023-01-30T05:32:46.489Z,23.27
2023-01-30T05:35:53.567Z,22.95
2023-01-30T05:39:00.546Z,23.32
2023-01-30T05:42:06.597Z,23.39
2023-01-30T05:45:16.664Z,22.75
2023-01-30T05:48:22.970Z,23.19
2023-01-30T05:51:30.914Z,24.59
2023-01-30T05:54:38.488Z,24.25
2023-01-30T05:57:45.273Z,23.83
2023-01-30T06:00:54.458Z,24.60
2023-01-30T06:04:04.945Z,24.92
2023-01-30T06:07:10.956Z,24.95
2023-01-30T06:10:17.909Z,24.18
2023-01-30T06:13:23.675Z,23.69
2023-01-30T06:16:32.929Z,24.87
2023-01-30T06:19:38.815Z,23.61
2023-01-30T06:22:45.407Z,23.54
2023-01-30T06:25:53.839Z,23.52
2023-01-30T06:29:00.417Z,25.02
2023-01-30T06:32:09.663Z,25.86
2023-01-30T06:35:17.033Z,26.10
2023-01-30T06:38:24.330Z,25.90
2023-01-30T06:41:32.319Z,25.72
2023-01-30T06:44:38.150Z,25.29
2023-01-30T06:47:55.939Z,25.48
2023-01-30T06:51:01.892Z,25.59
2023-01-30T06:57:30.237Z,24.71
2023-01-30T07:00:39.751Z,26.06
2023-01-30T07:03:48.709Z,26.14
2023-01-30T07:06:56.117Z,25.88
2023-01-30T07:10:08.274Z,26.30
2023-01-30T07:13:15.980Z,27.47
2023-01-30T07:16:24.172Z,27.54
2023-01-30T07:19:33.515Z,27.73
2023-01-30T07:22:39.263Z,26.88
2023-01-30T07:25:45.953Z,27.69
2023-01-30T07:28:51.760Z,27.32
2023-01-30T07:31:58.574Z,26.89
2023-01-30T07:35:07.944Z,27.05
2023-01-30T07:38:14.568Z,27.06
2023-01-30T07:41:20.293Z,26.74
2023-01-30T07:44:27.245Z,26.90
2023-01-30T07:47:33.656Z,26.86
2023-01-30T07:50:43.847Z,26.48
2023-01-30T07:53:53.652Z,25.87
2023-01-30T07:57:00.568Z,26.15
2023-01-30T08:00:10.870Z,26.63
2023-01-30T08:03:19.981Z,26.16
2023-01-30T08:06:28.489Z,26.48
2023-01-30T08:09:35.159Z,26.47
2023-01-30T08:12:40.951Z,26.64
2023-01-30T08:15:47.637Z,25.90
2023-01-30T08:18:53.380Z,24.65
2023-01-30T08:22:02.855Z,25.14
2023-01-30T08:25:10.729Z,25.30
2023-01-30T08:28:17.312Z,25.70
2023-01-30T08:31:23.062Z,24.87
2023-01-30T08:34:31.222Z,25.37
2023-01-30T08:37:39.676Z,23.93
2023-01-30T08:40:46.911Z,24.22
2023-01-30T08:43:52.634Z,23.63
2023-01-30T08:46:59.501Z,25.02
2023-01-30T08:50:05.415Z,24.19
2023-01-30T08:53:15.047Z,25.37
2023-01-30T08:56:20.997Z,27.76
2023-01-30T08:59:28.105Z,26.32
2023-01-30T09:02:34.169Z,26.68
2023-01-30T09:05:40.752Z,25.58
2023-01-30T09:08:49.599Z,24.93
2023-01-30T09:11:56.467Z,25.10
2023-01-30T09:15:02.512Z,26.89
2023-01-30T09:18:09.702Z,28.18
2023-01-30T09:21:16.963Z,27.67
2023-01-30T09:24:28.078Z,25.58
2023-01-30T09:27:34.244Z,26.54
2023-01-30T09:30:41.064Z,25.35
2023-01-30T09:33:46.781Z,25.03
2023-01-30T09:36:53.670Z,25.04
2023-01-30T09:40:02.159Z,27.21
2023-01-30T09:43:41.418Z,26.72
2023-01-30T09:47:04.053Z,24.40
2023-01-30T09:50:43.275Z,26.73
2023-01-30T09:54:18.838Z,26.81
2023-01-30T09:57:29.603Z,26.54
2023-01-30T10:00:42.345Z,27.33
2023-01-30T10:04:09.125Z,26.08
2023-01-30T10:07:31.536Z,25.94
2023-01-30T10:11:04.366Z,26.21
2023-01-30T10:14:54.869Z,27.39
2023-01-30T10:18:38.854Z,27.67
2023-01-30T10:21:57.434Z,28.24
2023-01-30T10:25:28.975Z,28.53
2023-01-30T10:28:49.772Z,44.75
2023-01-30T10:32:14.902Z,31.43
2023-01-30T10:35:27.367Z,31.45
2023-01-30T10:38:47.238Z,29.52
2023-01-30T10:42:07.104Z,28.26
2023-01-30T10:45:22.014Z,27.18
2023-01-30T10:48:57.459Z,26.92
2023-01-30T10:52:27.361Z,27.63
2023-01-30T10:55:43.755Z,27.36
2023-01-30T10:59:07.736Z,26.81
2023-01-30T11:02:28.765Z,26.49
2023-01-30T11:05:51.826Z,26.91
2023-01-30T11:08:59.793Z,27.90
2023-01-30T11:12:06.572Z,29.28
2023-01-30T11:15:16.560Z,29.05
2023-01-30T11:19:16.795Z,27.25
2023-01-30T11:21:59.503Z,30.72
2023-01-30T11:25:14.256Z,27.77
2023-01-30T11:28:20.449Z,27.81
2023-01-30T11:31:41.322Z,32.00
2023-01-30T11:35:04.122Z,27.66
2023-01-30T11:38:27.008Z,28.72
2023-01-30T11:41:34.408Z,26.16
2023-01-30T11:44:44.891Z,27.06
2023-01-30T11:48:05.073Z,27.36
2023-01-30T11:51:14.732Z,25.71
2023-01-30T11:54:33.721Z,26.99
2023-01-30T11:57:46.635Z,26.83
2023-01-30T12:00:53.445Z,25.94
2023-01-30T12:04:03.067Z,26.13
2023-01-30T12:07:19.543Z,25.39
2023-01-30T12:10:34.779Z,25.41
2023-01-30T12:13:45.828Z,24.45
2023-01-30T12:17:12.505Z,24.47
2023-01-30T12:20:40.863Z,26.00
2023-01-30T12:23:59.253Z,25.27
2023-01-30T12:27:23.992Z,27.52
2023-01-30T12:30:42.158Z,28.11
2023-01-30T12:33:48.262Z,25.26
2023-01-30T12:37:13.717Z,26.96
2023-01-30T12:40:48.592Z,28.07
2023-01-30T12:44:37.832Z,28.40
2023-01-30T12:48:26.529Z,28.31
2023-01-30T12:52:02.626Z,30.05
2023-01-30T12:55:31.093Z,29.46
2023-01-30T12:58:51.337Z,29.51
2023-01-30T13:02:46.912Z,30.10
2023-01-30T13:06:10.248Z,30.63
2023-01-30T13:09:44.415Z,30.08
2023-01-30T13:13:14.633Z,33.64
2023-01-30T13:16:39.546Z,33.13
2023-01-30T13:20:02.151Z,32.30
2023-01-30T13:23:20.319Z,31.75
2023-01-30T13:26:36.250Z,29.15
2023-01-30T13:29:47.107Z,29.51
2023-01-30T13:33:01.651Z,29.57
2023-01-30T13:36:20.847Z,29.59
2023-01-30T13:39:42.332Z,27.96
2023-01-30T13:42:59.915Z,29.63
2023-01-30T13:46:13.871Z,28.81
2023-01-30T13:49:32.509Z,30.63
2023-01-30T13:52:55.807Z,29.00
2023-01-30T13:56:33.017Z,31.91
2023-01-30T14:00:22.746Z,28.86
2023-01-30T14:03:35.488Z,32.59
2023-01-30T14:06:42.965Z,27.74
2023-01-30T14:10:10.064Z,26.85
2023-01-30T14:13:20.581Z,27.43
2023-01-30T14:16:43.757Z,28.69
2023-01-30T14:20:05.621Z,32.91
2023-01-30T14:23:30.272Z,29.64
2023-01-30T14:27:27.553Z,29.27
2023-01-30T14:30:48.692Z,28.58
2023-01-30T14:33:55.502Z,29.89
2023-01-30T14:37:01.410Z,29.15
2023-01-30T14:40:44.779Z,28.09
2023-01-30T14:43:57.316Z,29.09
2023-01-30T14:47:33.502Z,28.85
2023-01-30T14:50:29.919Z,30.95
2023-01-30T14:53:37.779Z,29.90
2023-01-30T14:56:54.272Z,29.41
2023-01-30T15:00:19.403Z,30.53
2023-01-30T15:03:25.381Z,27.67
2023-01-30T15:06:38.655Z,30.78
2023-01-30T15:09:55.571Z,28.94
2023-01-30T15:13:40.065Z,31.73
2023-01-30T15:17:15.788Z,34.98
2023-01-30T15:20:49.036Z,33.17
2023-01-30T15:24:27.068Z,33.61
2023-01-30T15:27:53.887Z,33.69
2023-01-30T15:31:20.448Z,30.92
2023-01-30T15:34:32.517Z,29.44
2023-01-30T15:37:42.288Z,30.08
2023-01-30T15:40:49.212Z,30.18
2023-01-30T15:44:42.548Z,31.46
2023-01-30T15:48:29.922Z,32.91
2023-01-30T15:51:39.459Z,34.30
2023-01-30T15:54:55.588Z,35.57
2023-01-30T15:58:08.854Z,37.65
2023-01-30T16:01:24.059Z,37.59
2023-01-30T16:04:32.586Z,36.05
2023-01-30T16:07:45.139Z,35.83
2023-01-30T16:10:51.928Z,36.36
2023-01-30T16:13:59.143Z,35.21
2023-01-30T16:17:10.222Z,36.03
2023-01-30T16:20:21.216Z,36.47
2023-01-30T16:23:38.146Z,37.59
2023-01-30T16:26:51.108Z,33.00
2023-01-30T16:30:07.408Z,32.66
2023-01-30T16:33:20.264Z,32.91
2023-01-30T16:36:50.748Z,33.51
2023-01-30T16:40:20.135Z,32.72
2023-01-30T16:43:28.690Z,31.31
2023-01-30T16:46:55.531Z,33.68
2023-01-30T16:50:01.604Z,31.68
2023-01-30T16:53:08.719Z,29.51
2023-01-30T16:56:20.521Z,29.03
2023-01-30T16:59:34.893Z,33.64
2023-01-30T17:02:45.072Z,34.75
2023-01-30T17:05:52.764Z,32.32
2023-01-30T17:09:02.424Z,33.66
2023-01-30T17:12:40.042Z,35.13
2023-01-30T17:15:46.149Z,32.84
2023-01-30T17:18:55.242Z,33.14
2023-01-30T17:22:03.733Z,29.44
2023-01-30T17:25:24.170Z,33.78
2023-01-30T17:28:32.656Z,31.89
2023-01-30T17:31:39.619Z,32.41
2023-01-30T17:34:45.832Z,30.69
2023-01-30T17:38:04.409Z,31.94
2023-01-30T17:41:23.124Z,34.23
2023-01-30T17:44:37.164Z,33.25
2023-01-30T17:47:42.876Z,30.48
2023-01-30T21:56:23.127Z,8.70
